sensor_id;sensor_type;location;lat;lon;timestamp;temperature;humidity
61591;DHT22;71994;52.410;-1.966;2023-08-08T00:00:41;17.80;59.90
61591;DHT22;71994;52.410;-1.966;2023-08-08T00:03:50;17.80;59.50
61591;DHT22;71994;52.410;-1.966;2023-08-08T00:06:57;17.80;59.50
61591;DHT22;71994;52.410;-1.966;2023-08-08T00:10:03;17.80;59.60
61591;DHT22;71994;52.410;-1.966;2023-08-08T00:13:09;17.80;59.90
61591;DHT22;71994;52.410;-1.966;2023-08-08T00:16:16;17.80;60.00
61591;DHT22;71994;52.410;-1.966;2023-08-08T00:19:25;17.80;59.50
61591;DHT22;71994;52.410;-1.966;2023-08-08T00:22:31;17.80;60.00
61591;DHT22;71994;52.410;-1.966;2023-08-08T00:25:37;17.80;59.80
61591;DHT22;71994;52.410;-1.966;2023-08-08T00:28:44;17.80;59.60
61591;DHT22;71994;52.410;-1.966;2023-08-08T00:31:50;17.80;59.60
61591;DHT22;71994;52.410;-1.966;2023-08-08T00:34:59;17.80;59.60
61591;DHT22;71994;52.410;-1.966;2023-08-08T00:38:05;17.80;59.50
61591;DHT22;71994;52.410;-1.966;2023-08-08T00:41:12;17.80;59.90
61591;DHT22;71994;52.410;-1.966;2023-08-08T00:44:19;17.80;60.00
61591;DHT22;71994;52.410;-1.966;2023-08-08T00:47:25;17.70;59.80
61591;DHT22;71994;52.410;-1.966;2023-08-08T00:50:35;17.80;59.90
61591;DHT22;71994;52.410;-1.966;2023-08-08T00:53:42;17.70;60.00
61591;DHT22;71994;52.410;-1.966;2023-08-08T00:56:50;17.70;59.50
61591;DHT22;71994;52.410;-1.966;2023-08-08T00:59:56;17.70;59.40
61591;DHT22;71994;52.410;-1.966;2023-08-08T01:03:03;17.70;59.40
61591;DHT22;71994;52.410;-1.966;2023-08-08T01:06:19;17.80;59.30
61591;DHT22;71994;52.410;-1.966;2023-08-08T01:09:33;17.70;59.40
61591;DHT22;71994;52.410;-1.966;2023-08-08T01:12:45;17.70;59.40
61591;DHT22;71994;52.410;-1.966;2023-08-08T01:15:51;17.70;59.30
61591;DHT22;71994;52.410;-1.966;2023-08-08T01:19:00;17.70;59.10
61591;DHT22;71994;52.410;-1.966;2023-08-08T01:22:16;17.70;59.10
61591;DHT22;71994;52.410;-1.966;2023-08-08T01:25:30;17.60;59.50
61591;DHT22;71994;52.410;-1.966;2023-08-08T01:28:37;17.60;59.50
61591;DHT22;71994;52.410;-1.966;2023-08-08T01:31:43;17.60;59.30
61591;DHT22;71994;52.410;-1.966;2023-08-08T01:34:49;17.60;59.20
61591;DHT22;71994;52.410;-1.966;2023-08-08T01:38:00;17.60;59.40
61591;DHT22;71994;52.410;-1.966;2023-08-08T01:41:13;17.60;59.40
61591;DHT22;71994;52.410;-1.966;2023-08-08T01:44:21;17.60;59.30
61591;DHT22;71994;52.410;-1.966;2023-08-08T01:47:28;17.60;59.20
61591;DHT22;71994;52.410;-1.966;2023-08-08T01:50:35;17.60;59.50
61591;DHT22;71994;52.410;-1.966;2023-08-08T01:53:41;17.60;59.20
61591;DHT22;71994;52.410;-1.966;2023-08-08T01:56:50;17.60;59.30
61591;DHT22;71994;52.410;-1.966;2023-08-08T01:59:56;17.60;59.50
61591;DHT22;71994;52.410;-1.966;2023-08-08T02:03:03;17.60;60.10
61591;DHT22;71994;52.410;-1.966;2023-08-08T02:06:09;17.60;59.80
61591;DHT22;71994;52.410;-1.966;2023-08-08T02:09:16;17.60;59.60
61591;DHT22;71994;52.410;-1.966;2023-08-08T02:12:26;17.60;60.10
61591;DHT22;71994;52.410;-1.966;2023-08-08T02:15:32;17.60;59.60
61591;DHT22;71994;52.410;-1.966;2023-08-08T02:18:40;17.60;59.70
61591;DHT22;71994;52.410;-1.966;2023-08-08T02:21:47;17.50;59.70
61591;DHT22;71994;52.410;-1.966;2023-08-08T02:24:56;17.50;59.70
61591;DHT22;71994;52.410;-1.966;2023-08-08T02:28:10;17.50;59.70
61591;DHT22;71994;52.410;-1.966;2023-08-08T02:31:16;17.50;59.90
61591;DHT22;71994;52.410;-1.966;2023-08-08T02:34:24;17.40;60.00
61591;DHT22;71994;52.410;-1.966;2023-08-08T02:37:31;17.40;59.80
61591;DHT22;71994;52.410;-1.966;2023-08-08T02:40:39;17.40;59.30
61591;DHT22;71994;52.410;-1.966;2023-08-08T02:43:49;17.40;59.50
61591;DHT22;71994;52.410;-1.966;2023-08-08T02:46:57;17.40;59.50
61591;DHT22;71994;52.410;-1.966;2023-08-08T02:50:06;17.40;59.50
61591;DHT22;71994;52.410;-1.966;2023-08-08T02:53:16;17.40;59.10
61591;DHT22;71994;52.410;-1.966;2023-08-08T02:56:24;17.30;59.50
61591;DHT22;71994;52.410;-1.966;2023-08-08T02:59:34;17.40;59.40
61591;DHT22;71994;52.410;-1.966;2023-08-08T03:02:41;17.40;59.30
61591;DHT22;71994;52.410;-1.966;2023-08-08T03:05:47;17.30;59.70
61591;DHT22;71994;52.410;-1.966;2023-08-08T03:08:55;17.40;59.30
61591;DHT22;71994;52.410;-1.966;2023-08-08T03:12:01;17.30;59.50
61591;DHT22;71994;52.410;-1.966;2023-08-08T03:15:11;17.30;59.70
61591;DHT22;71994;52.410;-1.966;2023-08-08T03:18:18;17.30;59.40
61591;DHT22;71994;52.410;-1.966;2023-08-08T03:21:26;17.30;59.60
61591;DHT22;71994;52.410;-1.966;2023-08-08T03:24:32;17.30;59.50
61591;DHT22;71994;52.410;-1.966;2023-08-08T03:27:38;17.30;59.90
61591;DHT22;71994;52.410;-1.966;2023-08-08T03:30:49;17.20;59.60
61591;DHT22;71994;52.410;-1.966;2023-08-08T03:33:57;17.30;59.80
61591;DHT22;71994;52.410;-1.966;2023-08-08T03:37:06;17.30;59.90
61591;DHT22;71994;52.410;-1.966;2023-08-08T03:40:13;17.30;60.10
61591;DHT22;71994;52.410;-1.966;2023-08-08T03:43:19;17.20;59.80
61591;DHT22;71994;52.410;-1.966;2023-08-08T03:46:29;17.20;59.40
61591;DHT22;71994;52.410;-1.966;2023-08-08T03:49:36;17.20;60.20
61591;DHT22;71994;52.410;-1.966;2023-08-08T03:52:44;17.30;60.20
61591;DHT22;71994;52.410;-1.966;2023-08-08T03:55:51;17.20;60.10
61591;DHT22;71994;52.410;-1.966;2023-08-08T03:58:57;17.20;60.00
61591;DHT22;71994;52.410;-1.966;2023-08-08T04:02:06;17.20;59.90
61591;DHT22;71994;52.410;-1.966;2023-08-08T04:05:13;17.20;59.80
61591;DHT22;71994;52.410;-1.966;2023-08-08T04:08:19;17.20;60.00
61591;DHT22;71994;52.410;-1.966;2023-08-08T04:11:25;17.20;60.10
61591;DHT22;71994;52.410;-1.966;2023-08-08T04:14:31;17.20;60.50
61591;DHT22;71994;52.410;-1.966;2023-08-08T04:17:40;17.10;60.20
61591;DHT22;71994;52.410;-1.966;2023-08-08T04:20:46;17.20;60.70
61591;DHT22;71994;52.410;-1.966;2023-08-08T04:23:52;17.20;60.00
61591;DHT22;71994;52.410;-1.966;2023-08-08T04:26:59;17.20;60.00
61591;DHT22;71994;52.410;-1.966;2023-08-08T04:30:06;17.20;59.70
61591;DHT22;71994;52.410;-1.966;2023-08-08T04:33:15;17.20;60.20
61591;DHT22;71994;52.410;-1.966;2023-08-08T04:36:21;17.20;59.40
61591;DHT22;71994;52.410;-1.966;2023-08-08T04:39:28;17.20;59.70
61591;DHT22;71994;52.410;-1.966;2023-08-08T04:42:34;17.20;59.70
61591;DHT22;71994;52.410;-1.966;2023-08-08T04:45:40;17.20;59.40
61591;DHT22;71994;52.410;-1.966;2023-08-08T04:48:49;17.20;59.50
61591;DHT22;71994;52.410;-1.966;2023-08-08T04:51:55;17.10;59.20
61591;DHT22;71994;52.410;-1.966;2023-08-08T04:55:02;17.20;59.20
61591;DHT22;71994;52.410;-1.966;2023-08-08T04:58:08;17.20;59.20
61591;DHT22;71994;52.410;-1.966;2023-08-08T05:01:14;17.10;59.30
61591;DHT22;71994;52.410;-1.966;2023-08-08T05:04:26;17.10;59.20
61591;DHT22;71994;52.410;-1.966;2023-08-08T05:07:32;17.10;59.40
61591;DHT22;71994;52.410;-1.966;2023-08-08T05:10:40;17.10;59.30
61591;DHT22;71994;52.410;-1.966;2023-08-08T05:13:48;17.10;59.30
61591;DHT22;71994;52.410;-1.966;2023-08-08T05:16:54;17.10;59.40
61591;DHT22;71994;52.410;-1.966;2023-08-08T05:20:04;17.10;59.50
61591;DHT22;71994;52.410;-1.966;2023-08-08T05:23:11;17.10;59.40
61591;DHT22;71994;52.410;-1.966;2023-08-08T05:26:17;17.10;59.40
61591;DHT22;71994;52.410;-1.966;2023-08-08T05:29:23;17.10;59.50
61591;DHT22;71994;52.410;-1.966;2023-08-08T05:32:29;17.10;59.50
61591;DHT22;71994;52.410;-1.966;2023-08-08T05:35:38;17.10;59.40
61591;DHT22;71994;52.410;-1.966;2023-08-08T05:38:45;17.10;59.40
61591;DHT22;71994;52.410;-1.966;2023-08-08T05:41:51;17.10;59.40
61591;DHT22;71994;52.410;-1.966;2023-08-08T05:44:58;17.10;59.20
61591;DHT22;71994;52.410;-1.966;2023-08-08T05:48:04;17.10;59.40
61591;DHT22;71994;52.410;-1.966;2023-08-08T05:51:15;17.10;59.60
61591;DHT22;71994;52.410;-1.966;2023-08-08T05:54:21;17.10;59.40
61591;DHT22;71994;52.410;-1.966;2023-08-08T05:57:28;17.10;59.60
61591;DHT22;71994;52.410;-1.966;2023-08-08T06:00:34;17.00;59.50
61591;DHT22;71994;52.410;-1.966;2023-08-08T06:03:40;17.10;59.70
61591;DHT22;71994;52.410;-1.966;2023-08-08T06:06:49;17.10;59.70
61591;DHT22;71994;52.410;-1.966;2023-08-08T06:09:55;17.00;59.60
61591;DHT22;71994;52.410;-1.966;2023-08-08T06:13:01;17.00;59.80
61591;DHT22;71994;52.410;-1.966;2023-08-08T06:16:11;17.00;59.50
61591;DHT22;71994;52.410;-1.966;2023-08-08T06:19:18;17.00;59.60
61591;DHT22;71994;52.410;-1.966;2023-08-08T06:22:26;17.00;59.50
61591;DHT22;71994;52.410;-1.966;2023-08-08T06:25:33;17.10;59.40
61591;DHT22;71994;52.410;-1.966;2023-08-08T06:28:39;17.10;59.50
61591;DHT22;71994;52.410;-1.966;2023-08-08T06:31:45;17.00;59.80
61591;DHT22;71994;52.410;-1.966;2023-08-08T06:34:51;17.00;59.60
61591;DHT22;71994;52.410;-1.966;2023-08-08T06:38:00;17.00;59.50
61591;DHT22;71994;52.410;-1.966;2023-08-08T06:41:07;17.00;59.50
61591;DHT22;71994;52.410;-1.966;2023-08-08T06:44:13;17.10;59.70
61591;DHT22;71994;52.410;-1.966;2023-08-08T06:47:19;17.10;59.80
61591;DHT22;71994;52.410;-1.966;2023-08-08T06:50:25;17.00;59.90
61591;DHT22;71994;52.410;-1.966;2023-08-08T06:53:34;17.10;59.90
61591;DHT22;71994;52.410;-1.966;2023-08-08T06:56:44;17.10;60.00
61591;DHT22;71994;52.410;-1.966;2023-08-08T06:59:54;17.10;60.00
61591;DHT22;71994;52.410;-1.966;2023-08-08T07:03:00;17.10;60.10
61591;DHT22;71994;52.410;-1.966;2023-08-08T07:06:07;17.10;60.10
61591;DHT22;71994;52.410;-1.966;2023-08-08T07:09:15;17.10;60.20
61591;DHT22;71994;52.410;-1.966;2023-08-08T07:12:22;17.10;60.70
61591;DHT22;71994;52.410;-1.966;2023-08-08T07:15:28;17.10;61.10
61591;DHT22;71994;52.410;-1.966;2023-08-08T07:18:34;17.10;61.10
61591;DHT22;71994;52.410;-1.966;2023-08-08T07:21:40;17.20;61.40
61591;DHT22;71994;52.410;-1.966;2023-08-08T07:24:50;17.30;61.60
61591;DHT22;71994;52.410;-1.966;2023-08-08T07:27:56;17.20;61.90
61591;DHT22;71994;52.410;-1.966;2023-08-08T07:31:02;17.20;62.10
61591;DHT22;71994;52.410;-1.966;2023-08-08T07:34:08;17.20;62.40
61591;DHT22;71994;52.410;-1.966;2023-08-08T07:37:15;17.20;62.40
61591;DHT22;71994;52.410;-1.966;2023-08-08T07:40:24;17.20;62.60
61591;DHT22;71994;52.410;-1.966;2023-08-08T07:43:30;17.20;62.70
61591;DHT22;71994;52.410;-1.966;2023-08-08T07:46:36;17.20;62.90
61591;DHT22;71994;52.410;-1.966;2023-08-08T07:49:43;17.20;63.00
61591;DHT22;71994;52.410;-1.966;2023-08-08T07:52:50;17.20;63.10
61591;DHT22;71994;52.410;-1.966;2023-08-08T07:56:00;17.20;63.20
61591;DHT22;71994;52.410;-1.966;2023-08-08T07:59:06;17.20;63.30
61591;DHT22;71994;52.410;-1.966;2023-08-08T08:02:13;17.20;63.30
61591;DHT22;71994;52.410;-1.966;2023-08-08T08:05:19;17.20;63.30
61591;DHT22;71994;52.410;-1.966;2023-08-08T08:08:25;17.30;63.40
61591;DHT22;71994;52.410;-1.966;2023-08-08T08:11:34;17.20;63.30
61591;DHT22;71994;52.410;-1.966;2023-08-08T08:14:41;17.30;63.10
61591;DHT22;71994;52.410;-1.966;2023-08-08T08:17:47;17.20;63.20
61591;DHT22;71994;52.410;-1.966;2023-08-08T08:20:54;17.30;63.10
61591;DHT22;71994;52.410;-1.966;2023-08-08T08:24:00;17.30;63.10
61591;DHT22;71994;52.410;-1.966;2023-08-08T08:27:09;17.30;63.00
61591;DHT22;71994;52.410;-1.966;2023-08-08T08:30:16;17.20;62.90
61591;DHT22;71994;52.410;-1.966;2023-08-08T08:33:22;17.30;62.80
61591;DHT22;71994;52.410;-1.966;2023-08-08T08:36:28;17.30;62.80
61591;DHT22;71994;52.410;-1.966;2023-08-08T08:39:35;17.30;62.60
61591;DHT22;71994;52.410;-1.966;2023-08-08T08:42:45;17.30;62.50
61591;DHT22;71994;52.410;-1.966;2023-08-08T08:45:53;17.30;62.50
61591;DHT22;71994;52.410;-1.966;2023-08-08T08:49:05;17.30;62.50
61591;DHT22;71994;52.410;-1.966;2023-08-08T08:52:11;17.30;62.50
61591;DHT22;71994;52.410;-1.966;2023-08-08T08:55:18;17.30;62.50
61591;DHT22;71994;52.410;-1.966;2023-08-08T08:58:27;17.30;62.90
61591;DHT22;71994;52.410;-1.966;2023-08-08T09:01:34;17.30;62.90
61591;DHT22;71994;52.410;-1.966;2023-08-08T09:04:40;17.30;62.80
61591;DHT22;71994;52.410;-1.966;2023-08-08T09:07:48;17.30;62.80
61591;DHT22;71994;52.410;-1.966;2023-08-08T09:10:54;17.30;62.70
61591;DHT22;71994;52.410;-1.966;2023-08-08T09:14:03;17.40;62.50
61591;DHT22;71994;52.410;-1.966;2023-08-08T09:17:14;17.40;62.50
61591;DHT22;71994;52.410;-1.966;2023-08-08T09:20:20;17.40;62.60
61591;DHT22;71994;52.410;-1.966;2023-08-08T09:23:26;17.40;62.70
61591;DHT22;71994;52.410;-1.966;2023-08-08T09:26:33;17.40;62.60
61591;DHT22;71994;52.410;-1.966;2023-08-08T09:29:43;17.40;62.70
61591;DHT22;71994;52.410;-1.966;2023-08-08T09:32:49;17.40;62.80
61591;DHT22;71994;52.410;-1.966;2023-08-08T09:35:55;17.50;62.80
61591;DHT22;71994;52.410;-1.966;2023-08-08T09:39:02;17.50;62.80
61591;DHT22;71994;52.410;-1.966;2023-08-08T09:42:08;17.50;62.90
61591;DHT22;71994;52.410;-1.966;2023-08-08T09:45:18;17.40;63.00
61591;DHT22;71994;52.410;-1.966;2023-08-08T09:48:29;17.50;63.00
61591;DHT22;71994;52.410;-1.966;2023-08-08T09:51:37;17.50;62.90
61591;DHT22;71994;52.410;-1.966;2023-08-08T09:54:43;17.50;62.90
61591;DHT22;71994;52.410;-1.966;2023-08-08T09:57:52;17.50;63.00
61591;DHT22;71994;52.410;-1.966;2023-08-08T10:01:03;17.40;63.20
61591;DHT22;71994;52.410;-1.966;2023-08-08T10:04:12;17.40;63.20
61591;DHT22;71994;52.410;-1.966;2023-08-08T10:07:18;17.40;63.20
61591;DHT22;71994;52.410;-1.966;2023-08-08T10:10:25;17.40;63.20
61591;DHT22;71994;52.410;-1.966;2023-08-08T10:13:31;17.50;63.20
61591;DHT22;71994;52.410;-1.966;2023-08-08T10:16:42;17.50;63.20
61591;DHT22;71994;52.410;-1.966;2023-08-08T10:19:53;17.60;63.10
61591;DHT22;71994;52.410;-1.966;2023-08-08T10:23:03;17.60;63.10
61591;DHT22;71994;52.410;-1.966;2023-08-08T10:26:18;17.50;63.10
61591;DHT22;71994;52.410;-1.966;2023-08-08T10:29:26;17.50;63.10
61591;DHT22;71994;52.410;-1.966;2023-08-08T10:32:45;17.50;63.20
61591;DHT22;71994;52.410;-1.966;2023-08-08T10:36:00;17.60;63.20
61591;DHT22;71994;52.410;-1.966;2023-08-08T10:39:11;17.60;63.30
61591;DHT22;71994;52.410;-1.966;2023-08-08T10:42:22;17.50;63.30
61591;DHT22;71994;52.410;-1.966;2023-08-08T10:45:30;17.60;63.40
61591;DHT22;71994;52.410;-1.966;2023-08-08T10:48:49;17.60;63.40
61591;DHT22;71994;52.410;-1.966;2023-08-08T10:52:02;17.60;63.40
61591;DHT22;71994;52.410;-1.966;2023-08-08T10:55:18;17.60;63.40
61591;DHT22;71994;52.410;-1.966;2023-08-08T10:58:35;17.60;63.40
61591;DHT22;71994;52.410;-1.966;2023-08-08T11:01:41;17.60;63.40
61591;DHT22;71994;52.410;-1.966;2023-08-08T11:04:51;17.60;63.40
61591;DHT22;71994;52.410;-1.966;2023-08-08T11:07:58;17.60;63.40
61591;DHT22;71994;52.410;-1.966;2023-08-08T11:11:05;17.60;63.50
61591;DHT22;71994;52.410;-1.966;2023-08-08T11:14:13;17.60;63.50
61591;DHT22;71994;52.410;-1.966;2023-08-08T11:17:19;17.60;63.50
61591;DHT22;71994;52.410;-1.966;2023-08-08T11:20:30;17.60;63.50
61591;DHT22;71994;52.410;-1.966;2023-08-08T11:23:37;17.60;63.50
61591;DHT22;71994;52.410;-1.966;2023-08-08T11:26:44;17.60;63.80
61591;DHT22;71994;52.410;-1.966;2023-08-08T11:29:50;17.60;64.00
61591;DHT22;71994;52.410;-1.966;2023-08-08T11:33:00;17.60;64.20
61591;DHT22;71994;52.410;-1.966;2023-08-08T11:36:09;17.60;64.40
61591;DHT22;71994;52.410;-1.966;2023-08-08T11:39:16;17.50;64.40
61591;DHT22;71994;52.410;-1.966;2023-08-08T11:42:23;17.60;64.40
61591;DHT22;71994;52.410;-1.966;2023-08-08T11:45:31;17.60;64.30
61591;DHT22;71994;52.410;-1.966;2023-08-08T11:48:39;17.60;64.40
61591;DHT22;71994;52.410;-1.966;2023-08-08T11:51:54;17.60;64.60
61591;DHT22;71994;52.410;-1.966;2023-08-08T11:55:02;17.60;64.60
61591;DHT22;71994;52.410;-1.966;2023-08-08T11:58:13;17.60;64.60
61591;DHT22;71994;52.410;-1.966;2023-08-08T12:01:20;17.60;64.60
61591;DHT22;71994;52.410;-1.966;2023-08-08T12:04:28;17.60;64.70
61591;DHT22;71994;52.410;-1.966;2023-08-08T12:07:37;17.70;64.60
61591;DHT22;71994;52.410;-1.966;2023-08-08T12:10:47;17.70;64.50
61591;DHT22;71994;52.410;-1.966;2023-08-08T12:13:59;17.70;64.40
61591;DHT22;71994;52.410;-1.966;2023-08-08T12:17:06;17.60;64.40
61591;DHT22;71994;52.410;-1.966;2023-08-08T12:20:15;17.60;64.50
61591;DHT22;71994;52.410;-1.966;2023-08-08T12:23:26;17.60;64.60
61591;DHT22;71994;52.410;-1.966;2023-08-08T12:26:32;17.60;64.50
61591;DHT22;71994;52.410;-1.966;2023-08-08T12:29:39;17.60;64.50
61591;DHT22;71994;52.410;-1.966;2023-08-08T12:32:45;17.70;64.40
61591;DHT22;71994;52.410;-1.966;2023-08-08T12:35:54;17.70;64.30
61591;DHT22;71994;52.410;-1.966;2023-08-08T12:39:03;17.70;64.20
61591;DHT22;71994;52.410;-1.966;2023-08-08T12:42:10;17.60;64.20
61591;DHT22;71994;52.410;-1.966;2023-08-08T12:45:16;17.70;64.20
61591;DHT22;71994;52.410;-1.966;2023-08-08T12:48:22;17.60;64.20
61591;DHT22;71994;52.410;-1.966;2023-08-08T12:51:28;17.60;64.30
61591;DHT22;71994;52.410;-1.966;2023-08-08T12:54:37;17.60;64.30
61591;DHT22;71994;52.410;-1.966;2023-08-08T12:57:44;17.70;64.40
61591;DHT22;71994;52.410;-1.966;2023-08-08T13:00:50;17.70;64.40
61591;DHT22;71994;52.410;-1.966;2023-08-08T13:03:56;17.70;64.40
61591;DHT22;71994;52.410;-1.966;2023-08-08T13:07:03;17.60;64.50
61591;DHT22;71994;52.410;-1.966;2023-08-08T13:10:13;17.60;64.60
61591;DHT22;71994;52.410;-1.966;2023-08-08T13:13:19;17.60;64.60
61591;DHT22;71994;52.410;-1.966;2023-08-08T13:16:28;17.60;64.60
61591;DHT22;71994;52.410;-1.966;2023-08-08T13:19:34;17.70;64.60
61591;DHT22;71994;52.410;-1.966;2023-08-08T13:22:40;17.70;64.60
61591;DHT22;71994;52.410;-1.966;2023-08-08T13:25:50;17.70;64.60
61591;DHT22;71994;52.410;-1.966;2023-08-08T13:28:56;17.70;64.60
61591;DHT22;71994;52.410;-1.966;2023-08-08T13:32:02;17.70;64.60
61591;DHT22;71994;52.410;-1.966;2023-08-08T13:35:09;17.70;64.60
61591;DHT22;71994;52.410;-1.966;2023-08-08T13:38:20;17.70;64.70
61591;DHT22;71994;52.410;-1.966;2023-08-08T13:41:32;17.70;64.60
61591;DHT22;71994;52.410;-1.966;2023-08-08T13:44:38;17.70;64.70
61591;DHT22;71994;52.410;-1.966;2023-08-08T13:47:44;17.70;64.60
61591;DHT22;71994;52.410;-1.966;2023-08-08T13:50:52;17.70;64.50
61591;DHT22;71994;52.410;-1.966;2023-08-08T13:53:58;17.70;64.50
61591;DHT22;71994;52.410;-1.966;2023-08-08T13:57:09;17.70;64.60
61591;DHT22;71994;52.410;-1.966;2023-08-08T14:00:15;17.70;64.60
61591;DHT22;71994;52.410;-1.966;2023-08-08T14:03:21;17.70;64.60
61591;DHT22;71994;52.410;-1.966;2023-08-08T14:06:28;17.70;64.60
61591;DHT22;71994;52.410;-1.966;2023-08-08T14:09:34;17.70;64.60
61591;DHT22;71994;52.410;-1.966;2023-08-08T14:12:43;17.70;64.60
61591;DHT22;71994;52.410;-1.966;2023-08-08T14:15:50;17.70;64.50
61591;DHT22;71994;52.410;-1.966;2023-08-08T14:18:58;17.70;64.50
61591;DHT22;71994;52.410;-1.966;2023-08-08T14:22:04;17.70;64.40
61591;DHT22;71994;52.410;-1.966;2023-08-08T14:25:11;17.70;64.40
61591;DHT22;71994;52.410;-1.966;2023-08-08T14:28:20;17.70;64.40
61591;DHT22;71994;52.410;-1.966;2023-08-08T14:31:26;17.70;64.40
61591;DHT22;71994;52.410;-1.966;2023-08-08T14:34:33;17.70;64.40
61591;DHT22;71994;52.410;-1.966;2023-08-08T14:37:41;17.70;64.50
61591;DHT22;71994;52.410;-1.966;2023-08-08T14:40:47;17.70;64.50
61591;DHT22;71994;52.410;-1.966;2023-08-08T14:43:56;17.70;64.40
61591;DHT22;71994;52.410;-1.966;2023-08-08T14:47:03;17.80;64.50
61591;DHT22;71994;52.410;-1.966;2023-08-08T14:50:09;17.70;64.50
61591;DHT22;71994;52.410;-1.966;2023-08-08T14:53:16;17.70;64.50
61591;DHT22;71994;52.410;-1.966;2023-08-08T14:56:22;17.70;64.60
61591;DHT22;71994;52.410;-1.966;2023-08-08T14:59:31;17.70;64.60
61591;DHT22;71994;52.410;-1.966;2023-08-08T15:02:37;17.70;64.70
61591;DHT22;71994;52.410;-1.966;2023-08-08T15:05:44;17.70;64.70
61591;DHT22;71994;52.410;-1.966;2023-08-08T15:08:51;17.70;64.70
61591;DHT22;71994;52.410;-1.966;2023-08-08T15:11:58;17.70;64.70
61591;DHT22;71994;52.410;-1.966;2023-08-08T15:15:09;17.70;64.70
61591;DHT22;71994;52.410;-1.966;2023-08-08T15:18:15;17.70;64.60
61591;DHT22;71994;52.410;-1.966;2023-08-08T15:21:21;17.80;64.70
61591;DHT22;71994;52.410;-1.966;2023-08-08T15:24:28;17.70;64.70
61591;DHT22;71994;52.410;-1.966;2023-08-08T15:27:34;17.70;64.60
61591;DHT22;71994;52.410;-1.966;2023-08-08T15:30:43;17.70;64.70
61591;DHT22;71994;52.410;-1.966;2023-08-08T15:33:49;17.70;64.60
61591;DHT22;71994;52.410;-1.966;2023-08-08T15:36:55;17.70;64.70
61591;DHT22;71994;52.410;-1.966;2023-08-08T15:40:05;17.70;64.70
61591;DHT22;71994;52.410;-1.966;2023-08-08T15:43:12;17.70;64.70
61591;DHT22;71994;52.410;-1.966;2023-08-08T15:46:21;17.70;64.80
61591;DHT22;71994;52.410;-1.966;2023-08-08T15:49:27;17.70;64.80
61591;DHT22;71994;52.410;-1.966;2023-08-08T15:52:35;17.70;64.70
61591;DHT22;71994;52.410;-1.966;2023-08-08T15:55:42;17.70;64.80
61591;DHT22;71994;52.410;-1.966;2023-08-08T15:58:48;17.80;64.80
61591;DHT22;71994;52.410;-1.966;2023-08-08T16:01:57;17.80;64.70
61591;DHT22;71994;52.410;-1.966;2023-08-08T16:05:03;17.80;64.80
61591;DHT22;71994;52.410;-1.966;2023-08-08T16:08:10;17.80;64.80
61591;DHT22;71994;52.410;-1.966;2023-08-08T16:11:16;17.80;64.70
61591;DHT22;71994;52.410;-1.966;2023-08-08T16:14:23;17.80;64.80
61591;DHT22;71994;52.410;-1.966;2023-08-08T16:17:32;17.80;64.80
61591;DHT22;71994;52.410;-1.966;2023-08-08T16:20:38;17.80;64.80
61591;DHT22;71994;52.410;-1.966;2023-08-08T16:23:45;17.80;64.80
61591;DHT22;71994;52.410;-1.966;2023-08-08T16:26:51;17.80;65.00
61591;DHT22;71994;52.410;-1.966;2023-08-08T16:29:58;17.70;65.20
61591;DHT22;71994;52.410;-1.966;2023-08-08T16:33:33;17.70;65.20
61591;DHT22;71994;52.410;-1.966;2023-08-08T16:36:52;17.80;65.30
61591;DHT22;71994;52.410;-1.966;2023-08-08T16:40:14;17.80;65.20
61591;DHT22;71994;52.410;-1.966;2023-08-08T16:43:37;17.80;65.20
61591;DHT22;71994;52.410;-1.966;2023-08-08T16:46:44;17.80;65.10
61591;DHT22;71994;52.410;-1.966;2023-08-08T16:49:53;17.80;65.20
61591;DHT22;71994;52.410;-1.966;2023-08-08T16:53:00;17.80;65.20
61591;DHT22;71994;52.410;-1.966;2023-08-08T16:56:06;17.80;65.30
61591;DHT22;71994;52.410;-1.966;2023-08-08T16:59:12;17.80;65.20
61591;DHT22;71994;52.410;-1.966;2023-08-08T17:02:19;17.80;65.20
61591;DHT22;71994;52.410;-1.966;2023-08-08T17:05:28;17.80;65.30
61591;DHT22;71994;52.410;-1.966;2023-08-08T17:08:34;17.80;65.30
61591;DHT22;71994;52.410;-1.966;2023-08-08T17:11:40;17.80;65.30
61591;DHT22;71994;52.410;-1.966;2023-08-08T17:14:47;17.80;65.30
61591;DHT22;71994;52.410;-1.966;2023-08-08T17:17:53;17.80;65.30
61591;DHT22;71994;52.410;-1.966;2023-08-08T17:21:02;17.80;65.80
61591;DHT22;71994;52.410;-1.966;2023-08-08T17:24:08;17.80;65.90
61591;DHT22;71994;52.410;-1.966;2023-08-08T17:27:15;17.80;66.00
61591;DHT22;71994;52.410;-1.966;2023-08-08T17:30:22;17.70;66.00
61591;DHT22;71994;52.410;-1.966;2023-08-08T17:33:28;17.80;66.10
61591;DHT22;71994;52.410;-1.966;2023-08-08T17:36:37;17.80;66.40
61591;DHT22;71994;52.410;-1.966;2023-08-08T17:39:43;17.80;66.70
61591;DHT22;71994;52.410;-1.966;2023-08-08T17:42:52;17.90;66.90
61591;DHT22;71994;52.410;-1.966;2023-08-08T17:45:59;17.90;67.00
61591;DHT22;71994;52.410;-1.966;2023-08-08T17:49:06;18.00;67.20
61591;DHT22;71994;52.410;-1.966;2023-08-08T17:52:16;18.00;67.20
61591;DHT22;71994;52.410;-1.966;2023-08-08T17:55:23;18.00;67.50
61591;DHT22;71994;52.410;-1.966;2023-08-08T17:58:29;18.10;67.50
61591;DHT22;71994;52.410;-1.966;2023-08-08T18:01:36;18.10;67.90
61591;DHT22;71994;52.410;-1.966;2023-08-08T18:04:46;18.10;68.00
61591;DHT22;71994;52.410;-1.966;2023-08-08T18:07:55;18.10;67.90
61591;DHT22;71994;52.410;-1.966;2023-08-08T18:11:02;18.10;68.00
61591;DHT22;71994;52.410;-1.966;2023-08-08T18:14:09;18.00;68.00
61591;DHT22;71994;52.410;-1.966;2023-08-08T18:17:15;18.00;68.10
61591;DHT22;71994;52.410;-1.966;2023-08-08T18:20:22;18.00;68.10
61591;DHT22;71994;52.410;-1.966;2023-08-08T18:23:31;18.00;68.00
61591;DHT22;71994;52.410;-1.966;2023-08-08T18:26:38;18.00;67.90
61591;DHT22;71994;52.410;-1.966;2023-08-08T18:29:44;18.00;67.90
61591;DHT22;71994;52.410;-1.966;2023-08-08T18:32:51;18.00;67.80
61591;DHT22;71994;52.410;-1.966;2023-08-08T18:35:59;18.00;67.90
61591;DHT22;71994;52.410;-1.966;2023-08-08T18:39:13;18.10;67.70
61591;DHT22;71994;52.410;-1.966;2023-08-08T18:42:20;18.10;67.60
61591;DHT22;71994;52.410;-1.966;2023-08-08T18:45:26;18.00;67.50
61591;DHT22;71994;52.410;-1.966;2023-08-08T18:48:32;18.10;67.50
61591;DHT22;71994;52.410;-1.966;2023-08-08T18:51:39;18.00;67.50
61591;DHT22;71994;52.410;-1.966;2023-08-08T18:54:48;18.10;67.40
61591;DHT22;71994;52.410;-1.966;2023-08-08T18:57:55;18.00;67.40
61591;DHT22;71994;52.410;-1.966;2023-08-08T19:01:02;18.00;67.40
61591;DHT22;71994;52.410;-1.966;2023-08-08T19:04:10;18.00;67.40
61591;DHT22;71994;52.410;-1.966;2023-08-08T19:07:17;18.00;67.50
61591;DHT22;71994;52.410;-1.966;2023-08-08T19:10:26;18.00;67.60
61591;DHT22;71994;52.410;-1.966;2023-08-08T19:13:32;18.00;67.50
61591;DHT22;71994;52.410;-1.966;2023-08-08T19:16:39;18.00;67.60
61591;DHT22;71994;52.410;-1.966;2023-08-08T19:19:48;18.00;67.60
61591;DHT22;71994;52.410;-1.966;2023-08-08T19:22:54;18.00;67.60
61591;DHT22;71994;52.410;-1.966;2023-08-08T19:26:03;17.90;67.50